TAM8084 SBGR-EGLL
Flight info
| Callsign | TAM8084 |
|---|---|
| Flight time | N/A |
| Altitude | 39000 |
| Route | VUMEV UZ14 NITLU UZ3 UTLEV UZ88 PABES UZ4 UKAVA UZ51 MOTBU DCT MOVGA/N0480F410 DCT BIKOM/M084F410 DCT ULTEM DCT 25N028W 30N026W 35N024W 40N020W DCT GONAN DCT TAMEL DCT EVBAK DCT GAPLI/N0482F410 DCT SIDDI DCT DAWLY DCT ELRIP DCT OTMET |
| Aircraft | B772/H-SDE2E3FGHIJ5LORVWXY/LB1D1 |
Departure
| Time | N/A |
|---|---|
| Airport | São Paulo/Guarulhos–Governor André Franco Montoro International Airport (SBGR) |
Arrival
| Time | 2026-05-08 07:03 |
|---|---|
| Airport | London Heathrow Airport (EGLL) |
| Time | Latitude | Longitude | Altitude | Speed | Heading |
|---|---|---|---|---|---|
| 2026-05-08 05:42 | 45.16542 | -9.63139 | 38798 ft | 477 kts | 39° |
| 2026-05-08 05:43 | 45.19144 | -9.60228 | 38799 ft | 477 kts | 40° |
| 2026-05-08 05:43 | 45.24331 | -9.54417 | 38808 ft | 478 kts | 39° |
| 2026-05-08 05:44 | 45.29545 | -9.48560 | 38812 ft | 477 kts | 39° |
| 2026-05-08 05:44 | 45.34712 | -9.42744 | 38824 ft | 478 kts | 39° |
| 2026-05-08 05:45 | 45.39934 | -9.36849 | 38819 ft | 477 kts | 39° |
| 2026-05-08 05:45 | 45.45113 | -9.30987 | 38828 ft | 477 kts | 40° |
| 2026-05-08 05:46 | 45.50306 | -9.25099 | 38842 ft | 477 kts | 40° |
| 2026-05-08 05:46 | 45.55513 | -9.19188 | 38838 ft | 478 kts | 40° |
| 2026-05-08 05:47 | 45.60671 | -9.13321 | 38837 ft | 477 kts | 40° |
| 2026-05-08 05:47 | 45.65849 | -9.07417 | 38844 ft | 477 kts | 40° |
| 2026-05-08 05:48 | 45.71045 | -9.01477 | 38844 ft | 477 kts | 40° |
| 2026-05-08 05:48 | 45.76225 | -8.95542 | 38845 ft | 479 kts | 39° |
| 2026-05-08 05:49 | 45.81387 | -8.89612 | 38846 ft | 480 kts | 39° |
| 2026-05-08 05:49 | 45.86577 | -8.83635 | 38849 ft | 478 kts | 39° |
| 2026-05-08 05:50 | 45.91763 | -8.77649 | 38851 ft | 479 kts | 39° |
| 2026-05-08 05:50 | 45.96972 | -8.71621 | 38857 ft | 478 kts | 39° |
| 2026-05-08 05:51 | 46.02132 | -8.65634 | 38861 ft | 478 kts | 39° |
| 2026-05-08 05:51 | 46.07293 | -8.59632 | 38865 ft | 478 kts | 39° |
| 2026-05-08 05:52 | 46.12439 | -8.53632 | 38862 ft | 479 kts | 39° |
| 2026-05-08 05:52 | 46.17622 | -8.47573 | 38867 ft | 478 kts | 39° |
| 2026-05-08 05:53 | 46.22783 | -8.41526 | 38862 ft | 479 kts | 39° |
| 2026-05-08 05:53 | 46.27923 | -8.35487 | 38866 ft | 478 kts | 39° |
| 2026-05-08 05:54 | 46.33073 | -8.29422 | 38858 ft | 478 kts | 39° |
| 2026-05-08 05:54 | 46.38205 | -8.23363 | 38865 ft | 478 kts | 39° |
| 2026-05-08 05:55 | 46.43359 | -8.17263 | 38869 ft | 477 kts | 39° |
| 2026-05-08 05:55 | 46.48474 | -8.11192 | 38866 ft | 478 kts | 39° |
| 2026-05-08 05:56 | 46.53608 | -8.05085 | 38868 ft | 477 kts | 39° |
| 2026-05-08 05:56 | 46.58709 | -7.99000 | 38873 ft | 477 kts | 39° |
| 2026-05-08 05:57 | 46.63821 | -7.92887 | 38878 ft | 476 kts | 39° |
| 2026-05-08 05:57 | 46.68943 | -7.86747 | 38883 ft | 478 kts | 39° |
| 2026-05-08 05:58 | 46.74065 | -7.80590 | 38889 ft | 478 kts | 39° |
| 2026-05-08 05:58 | 46.79169 | -7.74440 | 38900 ft | 478 kts | 39° |
| 2026-05-08 05:59 | 46.84323 | -7.68214 | 38906 ft | 479 kts | 39° |
| 2026-05-08 05:59 | 46.89410 | -7.62052 | 38915 ft | 477 kts | 39° |
| 2026-05-08 06:00 | 46.94500 | -7.55872 | 38923 ft | 476 kts | 38° |
| 2026-05-08 06:00 | 46.99581 | -7.49686 | 38921 ft | 476 kts | 38° |
| 2026-05-08 06:01 | 47.04670 | -7.43473 | 38924 ft | 475 kts | 38° |
| 2026-05-08 06:01 | 47.09721 | -7.37291 | 38927 ft | 476 kts | 38° |
| 2026-05-08 06:02 | 47.14790 | -7.31072 | 38925 ft | 475 kts | 39° |
| 2026-05-08 06:02 | 47.19850 | -7.24847 | 38921 ft | 477 kts | 39° |
| 2026-05-08 06:03 | 47.24911 | -7.18604 | 38934 ft | 478 kts | 39° |
| 2026-05-08 06:03 | 47.29990 | -7.12324 | 38933 ft | 478 kts | 39° |
| 2026-05-08 06:04 | 47.35070 | -7.06025 | 38935 ft | 477 kts | 39° |
| 2026-05-08 06:04 | 47.40099 | -6.99773 | 38938 ft | 477 kts | 39° |
| 2026-05-08 06:05 | 47.45173 | -6.93449 | 38932 ft | 478 kts | 38° |
| 2026-05-08 06:05 | 47.50250 | -6.87104 | 38943 ft | 478 kts | 39° |
| 2026-05-08 06:06 | 47.55301 | -6.80775 | 38940 ft | 477 kts | 38° |
| 2026-05-08 06:06 | 47.60358 | -6.74422 | 38951 ft | 478 kts | 38° |
| 2026-05-08 06:07 | 47.65426 | -6.68038 | 38946 ft | 477 kts | 38° |
| 2026-05-08 06:07 | 47.70459 | -6.61680 | 38936 ft | 476 kts | 38° |
| 2026-05-08 06:08 | 47.75464 | -6.55342 | 38950 ft | 475 kts | 38° |
| 2026-05-08 06:08 | 47.80471 | -6.48984 | 38943 ft | 475 kts | 38° |
| 2026-05-08 06:09 | 47.85483 | -6.42603 | 38950 ft | 475 kts | 38° |
| 2026-05-08 06:09 | 47.90496 | -6.36204 | 38952 ft | 477 kts | 38° |
| 2026-05-08 06:10 | 47.95502 | -6.29795 | 38945 ft | 476 kts | 39° |
| 2026-05-08 06:10 | 48.00518 | -6.23357 | 38949 ft | 474 kts | 38° |
| 2026-05-08 06:11 | 48.05477 | -6.16974 | 38943 ft | 474 kts | 38° |
| 2026-05-08 06:11 | 48.10462 | -6.10542 | 38947 ft | 472 kts | 38° |
| 2026-05-08 06:12 | 48.15397 | -6.04157 | 38944 ft | 473 kts | 39° |
| 2026-05-08 06:12 | 48.20372 | -5.97703 | 38949 ft | 473 kts | 38° |
| 2026-05-08 06:13 | 48.25336 | -5.91247 | 38959 ft | 475 kts | 38° |
| 2026-05-08 06:13 | 48.30286 | -5.84789 | 38960 ft | 474 kts | 38° |
| 2026-05-08 06:14 | 48.35245 | -5.78303 | 38961 ft | 473 kts | 38° |
| 2026-05-08 06:14 | 48.40200 | -5.71805 | 38963 ft | 474 kts | 38° |
| 2026-05-08 06:15 | 48.45148 | -5.65298 | 38966 ft | 472 kts | 38° |
| 2026-05-08 06:15 | 48.50088 | -5.58783 | 38962 ft | 473 kts | 38° |
| 2026-05-08 06:16 | 48.55016 | -5.52268 | 38969 ft | 473 kts | 38° |
| 2026-05-08 06:16 | 48.59956 | -5.45718 | 38974 ft | 473 kts | 38° |
| 2026-05-08 06:17 | 48.67322 | -5.35917 | 38984 ft | 473 kts | 38° |
| 2026-05-08 06:17 | 48.72229 | -5.29366 | 38974 ft | 473 kts | 39° |
| 2026-05-08 06:18 | 48.77161 | -5.22764 | 38980 ft | 474 kts | 39° |
| 2026-05-08 06:18 | 48.82074 | -5.16167 | 38988 ft | 473 kts | 39° |
| 2026-05-08 06:19 | 48.86986 | -5.09555 | 38988 ft | 473 kts | 38° |
| 2026-05-08 06:19 | 48.91915 | -5.02901 | 38991 ft | 475 kts | 38° |
| 2026-05-08 06:20 | 48.96837 | -4.96237 | 38981 ft | 473 kts | 39° |
| 2026-05-08 06:20 | 49.01698 | -4.89638 | 39006 ft | 473 kts | 39° |
| 2026-05-08 06:21 | 49.06619 | -4.82939 | 38987 ft | 473 kts | 39° |
| 2026-05-08 06:21 | 49.11496 | -4.76280 | 38987 ft | 473 kts | 39° |
| 2026-05-08 06:22 | 49.16342 | -4.69645 | 39000 ft | 473 kts | 38° |
| 2026-05-08 06:22 | 49.21224 | -4.62943 | 38978 ft | 473 kts | 39° |
| 2026-05-08 06:23 | 49.26134 | -4.56183 | 38985 ft | 474 kts | 38° |
| 2026-05-08 06:23 | 49.30984 | -4.49486 | 38979 ft | 472 kts | 38° |
| 2026-05-08 06:24 | 49.35858 | -4.42736 | 38984 ft | 474 kts | 38° |
| 2026-05-08 06:24 | 49.40713 | -4.35993 | 38967 ft | 471 kts | 38° |
| 2026-05-08 06:25 | 49.45587 | -4.29207 | 38985 ft | 473 kts | 39° |
| 2026-05-08 06:25 | 49.50415 | -4.22463 | 38974 ft | 473 kts | 39° |
| 2026-05-08 06:26 | 49.55292 | -4.15631 | 38984 ft | 472 kts | 39° |
| 2026-05-08 06:26 | 49.60133 | -4.08831 | 38986 ft | 472 kts | 39° |
| 2026-05-08 06:27 | 49.64966 | -4.02021 | 38990 ft | 472 kts | 39° |
| 2026-05-08 06:27 | 49.69805 | -3.95184 | 38977 ft | 472 kts | 39° |
| 2026-05-08 06:28 | 49.74603 | -3.88384 | 38966 ft | 472 kts | 39° |
| 2026-05-08 06:28 | 49.79427 | -3.81529 | 38993 ft | 472 kts | 39° |
| 2026-05-08 06:29 | 49.84238 | -3.74671 | 38990 ft | 472 kts | 39° |
| 2026-05-08 06:29 | 49.89066 | -3.67768 | 38963 ft | 473 kts | 39° |
| 2026-05-08 06:30 | 49.93850 | -3.60908 | 38978 ft | 472 kts | 39° |
| 2026-05-08 06:30 | 49.98638 | -3.54021 | 38940 ft | 470 kts | 39° |
| 2026-05-08 06:31 | 50.03429 | -3.47110 | 38973 ft | 470 kts | 39° |
| 2026-05-08 06:31 | 50.08165 | -3.40258 | 39009 ft | 469 kts | 39° |
| 2026-05-08 06:32 | 50.12926 | -3.33348 | 38964 ft | 469 kts | 40° |
| 2026-05-08 06:32 | 50.17682 | -3.26426 | 38969 ft | 471 kts | 40° |
| 2026-05-08 06:33 | 50.22455 | -3.19458 | 38983 ft | 472 kts | 40° |
| 2026-05-08 06:33 | 50.27230 | -3.12464 | 38988 ft | 471 kts | 40° |
| 2026-05-08 06:34 | 50.31978 | -3.05488 | 38935 ft | 466 kts | 40° |
| 2026-05-08 06:34 | 50.34318 | -3.02039 | 38352 ft | 464 kts | 40° |
| 2026-05-08 06:34 | 50.36673 | -2.98569 | 37322 ft | 472 kts | 39° |
| 2026-05-08 06:35 | 50.39068 | -2.95031 | 36399 ft | 477 kts | 39° |
| 2026-05-08 06:35 | 50.41446 | -2.91515 | 35714 ft | 481 kts | 38° |
| 2026-05-08 06:35 | 50.43875 | -2.87919 | 34806 ft | 488 kts | 38° |
| 2026-05-08 06:35 | 50.46360 | -2.84233 | 33594 ft | 492 kts | 38° |
| 2026-05-08 06:36 | 50.48803 | -2.80603 | 32511 ft | 493 kts | 38° |
| 2026-05-08 06:36 | 50.51277 | -2.76917 | 31505 ft | 491 kts | 39° |
| 2026-05-08 06:36 | 50.53756 | -2.73218 | 30548 ft | 488 kts | 39° |
| 2026-05-08 06:36 | 50.56172 | -2.69603 | 30018 ft | 477 kts | 39° |
| 2026-05-08 06:37 | 50.58538 | -2.66054 | 29478 ft | 468 kts | 39° |
| 2026-05-08 06:37 | 50.60874 | -2.62544 | 28879 ft | 460 kts | 40° |
| 2026-05-08 06:37 | 50.63068 | -2.58979 | 28258 ft | 456 kts | 47° |
| 2026-05-08 06:37 | 50.64882 | -2.54961 | 27628 ft | 453 kts | 57° |
| 2026-05-08 06:38 | 50.66243 | -2.50527 | 27095 ft | 447 kts | 67° |
| 2026-05-08 06:38 | 50.67090 | -2.45893 | 26786 ft | 443 kts | 77° |
| 2026-05-08 06:38 | 50.67453 | -2.41117 | 26413 ft | 443 kts | 86° |
| 2026-05-08 06:38 | 50.67400 | -2.36274 | 26098 ft | 440 kts | 91° |
| 2026-05-08 06:39 | 50.67251 | -2.31486 | 25800 ft | 438 kts | 93° |
| 2026-05-08 06:39 | 50.67084 | -2.26771 | 25506 ft | 436 kts | 93° |
| 2026-05-08 06:39 | 50.66902 | -2.21988 | 25207 ft | 432 kts | 94° |
| 2026-05-08 06:39 | 50.66715 | -2.17298 | 24915 ft | 429 kts | 94° |
| 2026-05-08 06:40 | 50.66523 | -2.12648 | 24626 ft | 426 kts | 94° |
| 2026-05-08 06:40 | 50.66325 | -2.07992 | 24335 ft | 425 kts | 94° |
| 2026-05-08 06:40 | 50.66125 | -2.03401 | 24051 ft | 422 kts | 95° |
| 2026-05-08 06:40 | 50.66011 | -1.98799 | 23759 ft | 420 kts | 90° |
| 2026-05-08 06:41 | 50.66093 | -1.94220 | 23472 ft | 418 kts | 89° |
| 2026-05-08 06:41 | 50.66181 | -1.89694 | 23185 ft | 416 kts | 89° |
| 2026-05-08 06:41 | 50.66258 | -1.85149 | 22898 ft | 413 kts | 89° |
| 2026-05-08 06:41 | 50.66327 | -1.80656 | 22622 ft | 412 kts | 89° |
| 2026-05-08 06:42 | 50.66388 | -1.76152 | 22340 ft | 411 kts | 89° |
| 2026-05-08 06:42 | 50.66444 | -1.71674 | 22067 ft | 408 kts | 89° |
| 2026-05-08 06:42 | 50.66495 | -1.67206 | 21784 ft | 407 kts | 89° |
| 2026-05-08 06:42 | 50.66542 | -1.62782 | 21506 ft | 405 kts | 90° |
| 2026-05-08 06:43 | 50.66635 | -1.58350 | 21240 ft | 404 kts | 85° |
| 2026-05-08 06:43 | 50.67167 | -1.53992 | 20967 ft | 403 kts | 74° |
| 2026-05-08 06:43 | 50.68169 | -1.49921 | 20546 ft | 403 kts | 65° |
| 2026-05-08 06:43 | 50.69362 | -1.45999 | 20351 ft | 390 kts | 64° |
| 2026-05-08 06:44 | 50.70520 | -1.42243 | 20192 ft | 369 kts | 64° |
| 2026-05-08 06:44 | 50.71605 | -1.38718 | 19973 ft | 349 kts | 64° |
| 2026-05-08 06:44 | 50.72639 | -1.35353 | 19835 ft | 339 kts | 64° |
| 2026-05-08 06:44 | 50.73663 | -1.32017 | 19526 ft | 337 kts | 65° |
| 2026-05-08 06:45 | 50.74685 | -1.28699 | 19159 ft | 337 kts | 64° |
| 2026-05-08 06:45 | 50.75919 | -1.25534 | 18853 ft | 337 kts | 54° |
| 2026-05-08 06:45 | 50.77481 | -1.22767 | 18544 ft | 336 kts | 44° |
| 2026-05-08 06:45 | 50.79291 | -1.20508 | 18250 ft | 335 kts | 34° |
| 2026-05-08 06:46 | 50.81237 | -1.18464 | 17946 ft | 333 kts | 34° |
| 2026-05-08 06:46 | 50.83143 | -1.16483 | 17645 ft | 332 kts | 33° |
| 2026-05-08 06:46 | 50.85068 | -1.14489 | 17368 ft | 330 kts | 33° |
| 2026-05-08 06:46 | 50.86989 | -1.12503 | 17077 ft | 328 kts | 33° |
| 2026-05-08 06:47 | 50.88903 | -1.10522 | 16776 ft | 327 kts | 33° |
| 2026-05-08 06:47 | 50.90802 | -1.08557 | 16491 ft | 325 kts | 33° |
| 2026-05-08 06:47 | 50.92677 | -1.06614 | 16203 ft | 324 kts | 33° |
| 2026-05-08 06:47 | 50.94568 | -1.04653 | 15908 ft | 323 kts | 33° |
| 2026-05-08 06:48 | 50.96433 | -1.02717 | 15653 ft | 321 kts | 33° |
| 2026-05-08 06:48 | 50.98281 | -1.00796 | 15399 ft | 319 kts | 33° |
| 2026-05-08 06:48 | 51.00120 | -0.98810 | 15111 ft | 318 kts | 39° |
| 2026-05-08 06:48 | 51.01693 | -0.96380 | 14845 ft | 315 kts | 48° |
| 2026-05-08 06:49 | 51.03147 | -0.93822 | 14602 ft | 314 kts | 49° |
| 2026-05-08 06:49 | 51.04588 | -0.91258 | 14341 ft | 313 kts | 49° |
| 2026-05-08 06:49 | 51.06043 | -0.88665 | 14094 ft | 312 kts | 49° |
| 2026-05-08 06:49 | 51.07482 | -0.86100 | 13847 ft | 310 kts | 48° |
| 2026-05-08 06:50 | 51.08910 | -0.83552 | 13591 ft | 309 kts | 48° |
| 2026-05-08 06:50 | 51.10327 | -0.81024 | 13341 ft | 309 kts | 48° |
| 2026-05-08 06:50 | 51.11757 | -0.78468 | 13086 ft | 308 kts | 48° |
| 2026-05-08 06:50 | 51.13176 | -0.75931 | 12843 ft | 307 kts | 48° |
| 2026-05-08 06:51 | 51.14585 | -0.73407 | 12597 ft | 306 kts | 48° |
| 2026-05-08 06:51 | 51.16000 | -0.70870 | 12350 ft | 305 kts | 48° |
| 2026-05-08 06:51 | 51.17385 | -0.68387 | 12132 ft | 304 kts | 48° |
| 2026-05-08 06:51 | 51.18803 | -0.65841 | 11894 ft | 303 kts | 48° |
| 2026-05-08 06:52 | 51.20187 | -0.63354 | 11668 ft | 302 kts | 48° |
| 2026-05-08 06:52 | 51.21580 | -0.60848 | 11454 ft | 300 kts | 48° |
| 2026-05-08 06:52 | 51.22950 | -0.58380 | 11276 ft | 297 kts | 47° |
| 2026-05-08 06:52 | 51.24286 | -0.55971 | 11223 ft | 281 kts | 47° |
| 2026-05-08 06:53 | 51.25547 | -0.53696 | 11104 ft | 273 kts | 47° |
| 2026-05-08 06:53 | 51.26922 | -0.51717 | 10730 ft | 266 kts | 26° |
| 2026-05-08 06:53 | 51.28664 | -0.50924 | 10321 ft | 258 kts | 357° |
| 2026-05-08 06:53 | 51.30375 | -0.51538 | 9886 ft | 252 kts | 330° |
| 2026-05-08 06:54 | 51.31707 | -0.53267 | 9403 ft | 248 kts | 304° |
| 2026-05-08 06:54 | 51.32562 | -0.55616 | 8925 ft | 246 kts | 292° |
| 2026-05-08 06:54 | 51.33190 | -0.58142 | 8450 ft | 245 kts | 288° |
| 2026-05-08 06:54 | 51.33731 | -0.60696 | 7958 ft | 245 kts | 286° |
| 2026-05-08 06:55 | 51.34254 | -0.63278 | 7451 ft | 245 kts | 286° |
| 2026-05-08 06:55 | 51.34774 | -0.65866 | 6942 ft | 246 kts | 286° |
| 2026-05-08 06:55 | 51.35306 | -0.68493 | 6451 ft | 245 kts | 286° |
| 2026-05-08 06:55 | 51.35821 | -0.71035 | 6323 ft | 242 kts | 286° |
| 2026-05-08 06:56 | 51.36336 | -0.73590 | 6120 ft | 244 kts | 286° |
| 2026-05-08 06:56 | 51.36867 | -0.76157 | 5861 ft | 244 kts | 291° |
| 2026-05-08 06:56 | 51.37860 | -0.78351 | 5484 ft | 247 kts | 321° |
| 2026-05-08 06:56 | 51.39381 | -0.79434 | 5078 ft | 241 kts | 353° |
| 2026-05-08 06:57 | 51.41007 | -0.79265 | 4678 ft | 230 kts | 10° |
| 2026-05-08 06:57 | 51.42562 | -0.78991 | 4360 ft | 220 kts | 3° |
| 2026-05-08 06:57 | 51.44060 | -0.78824 | 4082 ft | 210 kts | 15° |
| 2026-05-08 06:57 | 51.45303 | -0.77836 | 3773 ft | 196 kts | 40° |
| 2026-05-08 06:58 | 51.46265 | -0.76397 | 3468 ft | 176 kts | 48° |
| 2026-05-08 06:58 | 51.46932 | -0.74832 | 3165 ft | 165 kts | 68° |
| 2026-05-08 06:58 | 51.47310 | -0.73197 | 2948 ft | 148 kts | 68° |
| 2026-05-08 06:58 | 51.47601 | -0.71726 | 2876 ft | 135 kts | 84° |
| 2026-05-08 06:59 | 51.47654 | -0.70254 | 2704 ft | 128 kts | 91° |
| 2026-05-08 06:59 | 51.47665 | -0.68858 | 2544 ft | 123 kts | 92° |
| 2026-05-08 06:59 | 51.47669 | -0.67486 | 2393 ft | 123 kts | 91° |
| 2026-05-08 06:59 | 51.47674 | -0.66129 | 2242 ft | 122 kts | 91° |
| 2026-05-08 07:00 | 51.47680 | -0.64779 | 2088 ft | 121 kts | 91° |
| 2026-05-08 07:00 | 51.47686 | -0.63430 | 1932 ft | 121 kts | 91° |
| 2026-05-08 07:00 | 51.47693 | -0.62091 | 1777 ft | 120 kts | 91° |
| 2026-05-08 07:00 | 51.47699 | -0.60747 | 1619 ft | 120 kts | 91° |
| 2026-05-08 07:01 | 51.47705 | -0.59399 | 1459 ft | 121 kts | 91° |
| 2026-05-08 07:01 | 51.47711 | -0.58058 | 1299 ft | 121 kts | 91° |
| 2026-05-08 07:01 | 51.47717 | -0.56706 | 1135 ft | 121 kts | 90° |
| 2026-05-08 07:01 | 51.47723 | -0.55358 | 970 ft | 121 kts | 90° |
| 2026-05-08 07:02 | 51.47728 | -0.54018 | 806 ft | 121 kts | 90° |
| 2026-05-08 07:02 | 51.47734 | -0.52659 | 638 ft | 122 kts | 90° |
| 2026-05-08 07:02 | 51.47741 | -0.51309 | 471 ft | 122 kts | 89° |
| 2026-05-08 07:02 | 51.47744 | -0.49950 | 321 ft | 121 kts | 89° |
| 2026-05-08 07:03 | 51.47745 | -0.48596 | 163 ft | 122 kts | 89° |
| 2026-05-08 07:03 | 51.47737 | -0.47293 | 92 ft | 104 kts | 87° |
| 2026-05-08 07:03 | 51.47753 | -0.46425 | 91 ft | 51 kts | 88° |
| 2026-05-08 07:03 | 51.47757 | -0.45947 | 87 ft | 43 kts | 90° |
| 2026-05-08 07:04 | 51.47758 | -0.45645 | 90 ft | 18 kts | 89° |
| 2026-05-08 07:04 | 51.47731 | -0.45501 | 90 ft | 8 kts | 142° |
| 2026-05-08 07:04 | 51.47669 | -0.45470 | 91 ft | 5 kts | 176° |
| 2026-05-08 07:04 | 51.47612 | -0.45469 | 92 ft | 10 kts | 180° |
| 2026-05-08 07:05 | 51.47564 | -0.45471 | 93 ft | 7 kts | 180° |
| 2026-05-08 07:05 | 51.47518 | -0.45541 | 93 ft | 12 kts | 258° |
| 2026-05-08 07:05 | 51.47512 | -0.45662 | 93 ft | 12 kts | 269° |
| 2026-05-08 07:05 | 51.47516 | -0.45781 | 91 ft | 6 kts | 275° |
| 2026-05-08 07:06 | 51.47518 | -0.45873 | 90 ft | 9 kts | 269° |
| 2026-05-08 07:06 | 51.47511 | -0.46010 | 90 ft | 15 kts | 267° |
| 2026-05-08 07:06 | 51.47506 | -0.46147 | 87 ft | 6 kts | 238° |
| 2026-05-08 07:06 | 51.47452 | -0.46154 | 88 ft | 10 kts | 156° |
| 2026-05-08 07:07 | 51.47402 | -0.46105 | 90 ft | 3 kts | 147° |
| 2026-05-08 07:07 | 51.47381 | -0.46108 | 90 ft | 3 kts | 221° |
| 2026-05-08 07:07 | 51.47353 | -0.46162 | 90 ft | 0 kts | 231° |
| 2026-05-08 07:07 | 51.47343 | -0.46184 | 90 ft | 2 kts | 234° |
| 2026-05-08 07:08 | 51.47342 | -0.46188 | 90 ft | 0 kts | 234° |